createdAt,value
2022-09-22T00:01:13.874Z,9.10
2022-09-22T00:02:16.113Z,8.10
2022-09-22T00:03:18.286Z,7.37
2022-09-22T00:04:20.454Z,7.20
2022-09-22T00:05:24.114Z,8.13
2022-09-22T00:06:39.065Z,7.63
2022-09-22T00:07:41.367Z,7.33
2022-09-22T00:08:47.165Z,7.47
2022-09-22T00:09:49.304Z,7.23
2022-09-22T00:11:13.980Z,7.67
2022-09-22T00:12:16.313Z,8.40
2022-09-22T00:13:18.486Z,7.57
2022-09-22T00:14:26.108Z,8.23
2022-09-22T00:15:28.339Z,6.50
2022-09-22T00:16:40.094Z,7.53
2022-09-22T00:17:42.792Z,7.17
2022-09-22T00:18:44.959Z,7.63
2022-09-22T00:19:47.132Z,7.50
2022-09-22T00:20:49.473Z,8.27
2022-09-22T00:21:51.753Z,6.50
2022-09-22T00:22:53.858Z,7.17
2022-09-22T00:23:56.017Z,7.50
2022-09-22T00:25:00.221Z,6.93
2022-09-22T00:26:09.463Z,7.27
2022-09-22T00:27:11.653Z,7.27
2022-09-22T00:28:13.869Z,7.50
2022-09-22T00:29:17.442Z,7.93
2022-09-22T00:30:19.594Z,7.80
2022-09-22T00:31:24.444Z,8.60
2022-09-22T00:32:28.748Z,7.27
2022-09-22T00:33:30.920Z,8.10
2022-09-22T00:34:33.205Z,7.90
2022-09-22T00:35:38.384Z,6.90
2022-09-22T00:36:40.565Z,7.40
2022-09-22T00:37:42.714Z,6.90
2022-09-22T00:38:45.405Z,8.07
2022-09-22T00:39:47.584Z,8.63
2022-09-22T00:40:50.024Z,7.77
2022-09-22T00:41:55.220Z,8.17
2022-09-22T00:43:12.975Z,7.67
2022-09-22T00:44:18.679Z,6.90
2022-09-22T00:45:20.824Z,7.93
2022-09-22T00:46:26.853Z,9.00
2022-09-22T00:47:39.297Z,7.67
2022-09-22T00:48:51.153Z,7.00
2022-09-22T00:50:11.538Z,8.20
2022-09-22T00:51:16.778Z,7.17
2022-09-22T00:52:58.963Z,8.50
2022-09-22T00:54:04.665Z,7.20
2022-09-22T00:55:34.573Z,7.60
2022-09-22T00:56:45.285Z,7.57
2022-09-22T00:57:49.076Z,6.60
2022-09-22T00:58:57.776Z,6.40
2022-09-22T01:00:02.726Z,6.63
2022-09-22T01:01:05.199Z,6.70
2022-09-22T01:02:07.503Z,6.30
2022-09-22T01:03:15.932Z,6.37
2022-09-22T01:04:18.324Z,6.10
2022-09-22T01:05:22.353Z,6.13
2022-09-22T01:06:27.948Z,6.13
2022-09-22T01:07:31.263Z,6.13
2022-09-22T01:08:34.361Z,5.83
2022-09-22T01:09:36.592Z,5.30
2022-09-22T01:10:41.671Z,5.43
2022-09-22T01:11:43.906Z,5.83
2022-09-22T01:13:35.053Z,4.90
2022-09-22T01:14:39.877Z,5.20
2022-09-22T01:16:07.722Z,5.50
2022-09-22T01:17:29.854Z,5.47
2022-09-22T01:18:53.526Z,4.90
2022-09-22T01:20:20.972Z,5.00
2022-09-22T01:21:35.296Z,5.97
2022-09-22T01:23:25.334Z,5.70
2022-09-22T01:24:45.550Z,5.47
2022-09-22T01:26:12.264Z,4.40
2022-09-22T01:27:20.297Z,5.97
2022-09-22T01:28:46.875Z,6.77
2022-09-22T01:30:10.902Z,5.00
2022-09-22T01:31:37.315Z,4.80
2022-09-22T01:33:01.032Z,5.17
2022-09-22T01:34:30.253Z,5.47
2022-09-22T01:35:42.785Z,6.13
2022-09-22T01:36:57.211Z,6.07
2022-09-22T01:38:14.676Z,4.60
2022-09-22T01:39:34.419Z,5.10
2022-09-22T01:40:54.768Z,5.67
2022-09-22T01:42:30.441Z,5.30
2022-09-22T01:43:54.414Z,5.60
2022-09-22T01:45:19.496Z,6.50
2022-09-22T01:46:27.078Z,4.83
2022-09-22T01:47:40.689Z,5.33
2022-09-22T01:48:47.830Z,5.07
2022-09-22T01:49:57.153Z,4.80
2022-09-22T01:51:14.576Z,5.03
2022-09-22T01:52:23.436Z,4.83
2022-09-22T01:53:31.369Z,5.70
2022-09-22T01:54:49.787Z,5.30
2022-09-22T01:55:59.402Z,6.00
2022-09-22T01:57:21.298Z,6.63
2022-09-22T01:58:32.263Z,5.30
2022-09-22T01:59:38.684Z,5.10
2022-09-22T02:00:47.459Z,6.97
2022-09-22T02:01:56.107Z,7.30
2022-09-22T02:03:16.928Z,6.27
2022-09-22T02:04:29.743Z,6.53
2022-09-22T02:05:37.001Z,7.20
2022-09-22T02:06:54.334Z,6.27
2022-09-22T02:08:01.184Z,6.77
2022-09-22T02:09:07.387Z,7.97
2022-09-22T02:10:13.554Z,6.40
2022-09-22T02:11:16.321Z,6.70
2022-09-22T02:12:19.448Z,5.97
2022-09-22T02:13:21.604Z,6.53
2022-09-22T02:14:24.997Z,5.27
2022-09-22T02:15:46.955Z,7.13
2022-09-22T02:16:49.182Z,6.10
2022-09-22T02:17:51.347Z,6.43
2022-09-22T02:19:10.380Z,7.10
2022-09-22T02:20:14.550Z,5.90
2022-09-22T02:21:17.466Z,5.67
2022-09-22T02:22:20.984Z,8.07
2022-09-22T02:23:26.284Z,7.17
2022-09-22T02:24:33.249Z,6.67
2022-09-22T02:25:38.408Z,5.57
2022-09-22T02:26:40.584Z,6.17
2022-09-22T02:27:43.323Z,5.87
2022-09-22T02:28:46.195Z,5.10
2022-09-22T02:30:10.573Z,5.73
2022-09-22T02:31:21.341Z,7.00
2022-09-22T02:32:24.613Z,5.60
2022-09-22T02:33:28.343Z,6.00
2022-09-22T02:34:31.004Z,5.57
2022-09-22T02:35:37.103Z,7.80
2022-09-22T02:37:11.962Z,6.87
2022-09-22T02:38:19.985Z,6.37
2022-09-22T02:39:34.942Z,6.03
2022-09-22T02:40:44.007Z,6.73
2022-09-22T02:42:30.433Z,5.67
2022-09-22T02:43:36.699Z,5.53
2022-09-22T02:44:46.509Z,7.97
2022-09-22T02:46:15.393Z,5.60
2022-09-22T02:47:21.889Z,6.47
2022-09-22T02:48:31.945Z,6.63
2022-09-22T02:49:37.636Z,6.33
2022-09-22T02:50:39.875Z,5.20
2022-09-22T02:51:42.644Z,5.43
2022-09-22T02:52:44.909Z,8.23
2022-09-22T02:53:47.153Z,6.50
2022-09-22T02:54:49.313Z,6.03
2022-09-22T02:55:51.600Z,5.80
2022-09-22T02:56:54.297Z,5.50
2022-09-22T02:57:56.522Z,5.27
2022-09-22T02:58:58.952Z,5.30
2022-09-22T03:00:01.465Z,5.23
2022-09-22T03:01:03.941Z,5.10
2022-09-22T03:02:06.074Z,6.30
2022-09-22T03:03:08.358Z,5.63
2022-09-22T03:04:10.545Z,5.47
2022-09-22T03:05:12.772Z,5.43
2022-09-22T03:06:15.015Z,5.40
2022-09-22T03:07:18.612Z,5.20
2022-09-22T03:08:20.812Z,5.73
2022-09-22T03:09:23.071Z,5.33
2022-09-22T03:10:25.418Z,5.47
2022-09-22T03:11:27.552Z,5.27
2022-09-22T03:12:31.424Z,6.47
2022-09-22T03:13:33.586Z,5.83
2022-09-22T03:14:38.761Z,5.10
2022-09-22T03:15:41.058Z,5.50
2022-09-22T03:16:43.233Z,5.73
2022-09-22T03:17:47.349Z,6.17
2022-09-22T03:18:49.501Z,5.90
2022-09-22T03:19:52.738Z,5.50
2022-09-22T03:20:54.857Z,6.37
2022-09-22T03:21:57.022Z,6.20
2022-09-22T03:22:59.171Z,5.30
2022-09-22T03:24:01.939Z,5.17
2022-09-22T03:25:08.606Z,5.93
2022-09-22T03:26:10.840Z,5.53
2022-09-22T03:27:12.983Z,6.80
2022-09-22T03:28:15.251Z,4.97
2022-09-22T03:29:17.413Z,5.33
2022-09-22T03:30:19.614Z,6.80
2022-09-22T03:31:21.932Z,5.00
2022-09-22T03:32:24.175Z,6.47
2022-09-22T03:33:26.299Z,5.13
2022-09-22T03:34:28.436Z,5.00
2022-09-22T03:35:30.592Z,5.40
2022-09-22T03:36:32.888Z,5.27
2022-09-22T03:37:35.484Z,5.30
2022-09-22T03:38:37.631Z,7.30
2022-09-22T03:39:40.276Z,5.60
2022-09-22T03:40:49.882Z,7.40
2022-09-22T03:41:52.059Z,5.10
2022-09-22T03:42:54.859Z,6.13
2022-09-22T03:43:57.029Z,6.20
2022-09-22T03:44:59.318Z,6.30
2022-09-22T03:46:03.372Z,6.00
2022-09-22T03:47:05.887Z,6.60
2022-09-22T03:48:08.069Z,7.17
2022-09-22T03:49:11.194Z,6.47
2022-09-22T03:50:14.179Z,6.13
2022-09-22T03:51:16.557Z,5.93
2022-09-22T03:52:18.725Z,6.17
2022-09-22T03:53:21.167Z,6.53
2022-09-22T03:54:23.624Z,5.90
2022-09-22T03:55:25.890Z,5.67
2022-09-22T03:56:28.094Z,6.17
2022-09-22T03:57:30.532Z,6.43
2022-09-22T03:58:33.229Z,6.87
2022-09-22T03:59:35.499Z,6.80
2022-09-22T04:00:37.717Z,7.07
2022-09-22T04:01:40.234Z,6.50
2022-09-22T04:02:42.878Z,6.10
2022-09-22T04:03:45.056Z,6.70
2022-09-22T04:04:47.283Z,8.77
2022-09-22T04:05:50.721Z,7.23
2022-09-22T04:06:52.928Z,6.67
2022-09-22T04:07:55.193Z,7.80
2022-09-22T04:08:57.438Z,10.03
2022-09-22T04:09:59.557Z,6.27
2022-09-22T04:11:03.899Z,14.83
2022-09-22T04:12:06.644Z,8.53
2022-09-22T04:13:08.799Z,6.50
2022-09-22T04:14:11.112Z,6.40
2022-09-22T04:15:13.384Z,6.90
2022-09-22T04:16:15.579Z,8.87
2022-09-22T04:17:20.657Z,7.43
2022-09-22T04:18:22.897Z,6.80
2022-09-22T04:19:25.077Z,7.00
2022-09-22T04:20:29.981Z,7.27
2022-09-22T04:21:32.416Z,7.10
2022-09-22T04:22:34.686Z,7.83
2022-09-22T04:23:37.091Z,7.50
2022-09-22T04:24:39.287Z,7.07
2022-09-22T04:25:41.781Z,9.00
2022-09-22T04:27:01.858Z,7.33
2022-09-22T04:28:06.915Z,10.00
2022-09-22T04:29:09.114Z,6.77
2022-09-22T04:30:11.879Z,7.40
2022-09-22T04:31:14.156Z,6.63
2022-09-22T04:32:18.428Z,6.80
2022-09-22T04:33:20.881Z,6.80
2022-09-22T04:34:23.097Z,6.77
2022-09-22T04:35:26.866Z,6.97
2022-09-22T04:36:29.098Z,6.60
2022-09-22T04:37:31.306Z,6.43
2022-09-22T04:38:33.490Z,7.17
2022-09-22T04:39:36.403Z,7.00
2022-09-22T04:40:38.630Z,6.67
2022-09-22T04:41:42.001Z,6.50
2022-09-22T04:42:46.560Z,7.07
2022-09-22T04:43:48.756Z,11.93
2022-09-22T04:44:50.929Z,6.33
2022-09-22T04:45:53.228Z,6.30
2022-09-22T04:46:57.232Z,6.47
2022-09-22T04:47:59.379Z,6.13
2022-09-22T04:49:01.581Z,6.70
2022-09-22T04:50:03.977Z,6.03
2022-09-22T04:51:06.146Z,5.93
2022-09-22T04:52:08.297Z,6.93
2022-09-22T04:53:10.609Z,5.80
2022-09-22T04:54:14.175Z,6.40
2022-09-22T04:55:16.759Z,7.37
2022-09-22T04:56:18.870Z,9.80
2022-09-22T04:57:20.993Z,7.17
2022-09-22T04:58:23.191Z,7.90
2022-09-22T04:59:25.445Z,9.20
2022-09-22T05:00:29.499Z,7.47
2022-09-22T05:01:31.724Z,7.70
2022-09-22T05:02:35.575Z,8.03
2022-09-22T05:03:39.461Z,7.73
2022-09-22T05:04:41.688Z,8.43
2022-09-22T05:05:43.827Z,7.10
2022-09-22T05:06:45.971Z,8.13
2022-09-22T05:07:52.899Z,12.27
2022-09-22T05:08:55.673Z,8.00
2022-09-22T05:09:58.031Z,10.93
2022-09-22T05:11:03.199Z,7.93
2022-09-22T05:12:05.544Z,9.70
2022-09-22T05:13:08.328Z,8.60
2022-09-22T05:14:10.721Z,7.37
2022-09-22T05:15:14.729Z,8.00
2022-09-22T05:16:18.185Z,7.30
2022-09-22T05:17:20.798Z,8.93
2022-09-22T05:18:23.700Z,7.63
2022-09-22T05:19:25.839Z,7.13
2022-09-22T05:20:28.120Z,7.27
2022-09-22T05:21:30.307Z,7.53
2022-09-22T05:22:36.346Z,7.53
2022-09-22T05:23:41.347Z,8.03
2022-09-22T05:24:45.837Z,7.40
2022-09-22T05:25:47.994Z,7.10
2022-09-22T05:26:50.499Z,8.37
2022-09-22T05:27:54.579Z,7.70
2022-09-22T05:28:57.691Z,6.70
2022-09-22T05:29:59.846Z,7.17
2022-09-22T05:31:03.062Z,7.23
2022-09-22T05:32:05.433Z,6.57
2022-09-22T05:33:07.625Z,6.17
2022-09-22T05:34:09.848Z,6.60
2022-09-22T05:35:14.031Z,5.90
2022-09-22T05:36:17.091Z,6.40
2022-09-22T05:37:19.218Z,6.87
2022-09-22T05:38:21.355Z,7.07
2022-09-22T05:39:23.657Z,6.43
2022-09-22T05:40:26.845Z,7.30
2022-09-22T05:41:29.034Z,5.67
2022-09-22T05:42:31.153Z,6.23
2022-09-22T05:43:33.319Z,6.37
2022-09-22T05:44:35.551Z,8.10
2022-09-22T05:45:37.716Z,6.50
2022-09-22T05:46:40.038Z,5.93
2022-09-22T05:47:43.405Z,5.47
2022-09-22T05:48:45.529Z,6.27
2022-09-22T05:49:47.716Z,5.90
2022-09-22T05:50:49.847Z,7.10
2022-09-22T05:51:55.581Z,6.40
2022-09-22T05:53:06.455Z,5.90
2022-09-22T05:54:09.999Z,7.27
2022-09-22T05:55:13.281Z,6.50
2022-09-22T05:56:17.903Z,6.67
2022-09-22T05:57:25.878Z,6.77
2022-09-22T05:58:28.109Z,7.40
2022-09-22T05:59:30.256Z,7.33
2022-09-22T06:00:33.419Z,8.00
2022-09-22T06:01:35.571Z,7.23
2022-09-22T06:02:38.716Z,7.77
2022-09-22T06:03:40.917Z,9.00
2022-09-22T06:04:43.042Z,8.03
2022-09-22T06:05:45.774Z,8.07
2022-09-22T06:06:48.008Z,7.73
2022-09-22T06:08:01.576Z,8.33
2022-09-22T06:09:04.148Z,8.27
2022-09-22T06:10:07.062Z,8.73
2022-09-22T06:11:09.284Z,11.97
2022-09-22T06:12:11.920Z,10.37
2022-09-22T06:13:14.091Z,12.53
2022-09-22T06:14:16.272Z,11.87
2022-09-22T06:15:18.407Z,11.73
2022-09-22T06:16:21.235Z,10.20
2022-09-22T06:17:26.271Z,10.27
2022-09-22T06:18:31.606Z,9.63
2022-09-22T06:19:35.149Z,10.93
2022-09-22T06:20:38.098Z,9.90
2022-09-22T06:21:40.298Z,9.07
2022-09-22T06:22:42.536Z,9.47
2022-09-22T06:23:44.997Z,8.73
2022-09-22T06:24:48.920Z,9.43
2022-09-22T06:25:56.807Z,9.17
2022-09-22T06:26:58.945Z,8.80
2022-09-22T06:28:09.986Z,10.60
2022-09-22T06:29:12.206Z,9.87
2022-09-22T06:30:14.349Z,9.07
2022-09-22T06:31:16.557Z,8.50
2022-09-22T06:32:19.625Z,7.80
2022-09-22T06:33:23.968Z,7.40
2022-09-22T06:34:27.419Z,7.50
2022-09-22T06:35:36.650Z,8.97
2022-09-22T06:36:43.139Z,9.70
2022-09-22T06:37:45.427Z,7.17
2022-09-22T06:38:47.547Z,8.75
2022-09-22T06:39:49.810Z,7.55
2022-09-22T06:40:52.265Z,7.63
2022-09-22T06:41:56.497Z,7.85
2022-09-22T06:43:00.146Z,8.02
2022-09-22T06:44:02.733Z,7.78
2022-09-22T06:45:05.327Z,8.27
2022-09-22T06:46:07.868Z,7.72
2022-09-22T06:47:10.226Z,6.95
2022-09-22T06:48:12.551Z,8.63
2022-09-22T06:49:14.721Z,8.85
2022-09-22T06:50:17.815Z,7.82
2022-09-22T06:51:19.994Z,7.00
2022-09-22T06:52:22.125Z,8.35
2022-09-22T06:53:27.363Z,6.78
2022-09-22T06:54:30.343Z,6.72
2022-09-22T06:55:33.036Z,6.35
2022-09-22T06:56:43.113Z,6.28
2022-09-22T06:57:45.317Z,5.82
2022-09-22T06:59:08.790Z,5.47
2022-09-22T07:00:13.427Z,6.57
2022-09-22T07:01:19.494Z,6.45
2022-09-22T07:02:28.271Z,6.38
2022-09-22T07:03:31.194Z,6.57
2022-09-22T07:04:34.869Z,6.20
2022-09-22T07:05:37.340Z,7.60
2022-09-22T07:06:40.732Z,6.95
2022-09-22T07:07:42.944Z,6.28
2022-09-22T07:08:47.089Z,6.75
2022-09-22T07:09:49.275Z,7.32
2022-09-22T07:10:56.927Z,6.45
2022-09-22T07:12:00.373Z,7.00
2022-09-22T07:13:02.824Z,6.57
2022-09-22T07:14:05.002Z,6.90
2022-09-22T07:15:07.840Z,6.85
2022-09-22T07:16:13.772Z,6.90
2022-09-22T07:17:18.865Z,6.88
2022-09-22T07:18:21.022Z,6.30
2022-09-22T07:19:23.212Z,6.57
2022-09-22T07:20:25.385Z,6.25
2022-09-22T07:21:31.927Z,7.55
2022-09-22T07:22:39.592Z,7.00
2022-09-22T07:23:44.348Z,7.55
2022-09-22T07:24:46.592Z,6.50
2022-09-22T07:25:56.547Z,6.57
2022-09-22T07:27:05.135Z,6.47
2022-09-22T07:29:16.215Z,7.15
2022-09-22T07:30:21.916Z,7.25
2022-09-22T07:31:28.588Z,8.52
2022-09-22T07:32:32.559Z,6.88
2022-09-22T07:33:36.451Z,6.40
2022-09-22T07:34:38.655Z,7.47
2022-09-22T07:35:41.235Z,6.90
2022-09-22T07:36:43.371Z,6.60
2022-09-22T07:37:46.694Z,7.53
2022-09-22T07:38:51.745Z,6.80
2022-09-22T07:39:53.909Z,8.13
2022-09-22T07:40:56.061Z,7.15
2022-09-22T07:41:58.971Z,6.72
2022-09-22T07:43:02.731Z,6.38
2022-09-22T07:44:23.340Z,7.45
2022-09-22T07:45:25.504Z,6.53
2022-09-22T07:46:27.691Z,7.10
2022-09-22T07:47:48.323Z,8.05
2022-09-22T07:48:50.540Z,6.43
2022-09-22T07:49:52.710Z,6.13
2022-09-22T07:50:55.053Z,7.65
2022-09-22T07:51:57.945Z,6.53
2022-09-22T07:53:00.176Z,5.60
2022-09-22T07:54:09.589Z,6.13
2022-09-22T07:55:11.809Z,5.53
2022-09-22T07:56:17.068Z,7.70
2022-09-22T07:57:21.508Z,6.45
2022-09-22T07:58:23.781Z,5.97
2022-09-22T07:59:26.639Z,5.90
2022-09-22T08:00:33.872Z,6.20
2022-09-22T08:01:38.086Z,6.05
2022-09-22T08:02:41.254Z,6.82
2022-09-22T08:03:44.577Z,5.80
2022-09-22T08:04:46.729Z,8.18
2022-09-22T08:05:52.099Z,6.63
2022-09-22T08:06:56.500Z,6.47
2022-09-22T08:07:58.825Z,6.55
2022-09-22T08:09:05.536Z,5.97
2022-09-22T08:10:08.252Z,5.45
2022-09-22T08:11:14.995Z,6.57
2022-09-22T08:12:17.206Z,5.43
2022-09-22T08:13:20.593Z,5.75
2022-09-22T08:14:24.240Z,5.45
2022-09-22T08:15:27.453Z,7.28
2022-09-22T08:16:33.442Z,5.55
2022-09-22T08:17:35.699Z,5.28
2022-09-22T08:18:39.734Z,6.15
2022-09-22T08:19:42.110Z,6.22
2022-09-22T08:20:45.102Z,6.68
2022-09-22T08:21:50.561Z,4.53
2022-09-22T08:22:53.925Z,4.40
2022-09-22T08:23:56.073Z,7.35
2022-09-22T08:24:58.263Z,5.80
2022-09-22T08:26:08.546Z,4.57
2022-09-22T08:27:10.721Z,4.57
2022-09-22T08:28:12.860Z,5.18
2022-09-22T08:29:15.102Z,7.43
2022-09-22T08:30:18.975Z,5.75
2022-09-22T08:31:22.712Z,5.20
2022-09-22T08:32:26.757Z,5.07
2022-09-22T08:33:32.372Z,5.25
2022-09-22T08:34:34.657Z,5.53
2022-09-22T08:35:37.497Z,6.28
2022-09-22T08:36:39.992Z,5.20
2022-09-22T08:37:44.228Z,6.05
2022-09-22T08:38:49.760Z,4.68
2022-09-22T08:39:51.976Z,4.90
2022-09-22T08:41:29.219Z,4.85
2022-09-22T08:42:34.229Z,5.68
2022-09-22T08:43:44.442Z,4.20
2022-09-22T08:44:58.273Z,5.53
2022-09-22T08:46:04.496Z,4.53
2022-09-22T08:47:10.479Z,4.43
2022-09-22T08:48:44.299Z,5.07
2022-09-22T08:50:07.892Z,4.30
2022-09-22T08:51:45.585Z,5.78
2022-09-22T08:52:55.514Z,4.00
2022-09-22T08:54:03.071Z,4.15
2022-09-22T08:55:11.254Z,4.75
2022-09-22T08:56:29.306Z,5.32
2022-09-22T08:57:46.787Z,5.07
2022-09-22T08:59:02.273Z,5.40
2022-09-22T09:00:06.582Z,4.13
2022-09-22T09:01:30.522Z,3.65
2022-09-22T09:02:58.710Z,4.05
2022-09-22T09:04:21.269Z,4.38
2022-09-22T09:06:04.729Z,4.30
2022-09-22T09:07:36.099Z,5.10
2022-09-22T09:09:05.267Z,3.70
2022-09-22T09:10:28.410Z,5.05
2022-09-22T09:11:58.331Z,4.65
2022-09-22T09:13:32.480Z,4.40
2022-09-22T09:14:47.429Z,4.13
2022-09-22T09:16:14.507Z,4.05
2022-09-22T09:17:28.948Z,4.38
2022-09-22T09:18:34.774Z,4.70
2022-09-22T09:19:46.421Z,4.22
2022-09-22T09:20:52.257Z,4.00
2022-09-22T09:22:00.254Z,4.55
2022-09-22T09:23:10.723Z,4.28
2022-09-22T09:25:50.784Z,4.22
2022-09-22T09:26:53.884Z,3.20
2022-09-22T09:28:01.459Z,3.30
2022-09-22T09:29:14.000Z,3.72
2022-09-22T09:30:19.077Z,3.25
2022-09-22T09:31:32.320Z,3.67
2022-09-22T09:32:50.163Z,3.25
2022-09-22T09:34:19.956Z,4.20
2022-09-22T09:35:39.628Z,5.35
2022-09-22T09:36:52.956Z,4.13
2022-09-22T09:37:59.583Z,4.45
2022-09-22T09:39:13.158Z,4.40
2022-09-22T09:40:19.620Z,4.10
2022-09-22T09:41:31.916Z,5.85
2022-09-22T09:42:36.961Z,5.03
2022-09-22T09:43:42.903Z,3.90
2022-09-22T09:44:46.744Z,5.38
2022-09-22T09:45:51.814Z,5.18
2022-09-22T09:47:07.933Z,4.35
2022-09-22T09:48:16.048Z,4.70
2022-09-22T09:49:20.903Z,3.90
2022-09-22T09:50:25.266Z,4.15
2022-09-22T09:51:28.856Z,3.50
2022-09-22T09:52:31.270Z,4.55
2022-09-22T09:53:43.571Z,5.10
2022-09-22T09:54:47.364Z,4.22
2022-09-22T09:55:50.794Z,4.63
2022-09-22T09:57:18.493Z,4.05
2022-09-22T09:58:38.979Z,4.95
2022-09-22T10:00:08.538Z,3.78
2022-09-22T10:01:16.598Z,4.00
2022-09-22T10:02:31.794Z,3.38
2022-09-22T10:03:42.696Z,4.78
2022-09-22T10:04:54.806Z,5.13
2022-09-22T10:06:04.582Z,2.92
2022-09-22T10:07:15.319Z,3.08
2022-09-22T10:08:21.255Z,3.20
2022-09-22T10:09:28.657Z,3.28
2022-09-22T10:10:37.509Z,6.70
2022-09-22T10:11:39.734Z,3.35
2022-09-22T10:12:41.889Z,2.83
2022-09-22T10:13:44.396Z,3.33
2022-09-22T10:14:53.666Z,2.90
2022-09-22T10:16:01.967Z,3.10
2022-09-22T10:17:20.470Z,4.15
2022-09-22T10:18:25.550Z,2.92
2022-09-22T10:19:30.652Z,3.58
2022-09-22T10:20:34.188Z,3.05
2022-09-22T10:21:37.815Z,3.15
2022-09-22T10:22:40.646Z,3.08
2022-09-22T10:23:47.862Z,3.08
2022-09-22T10:24:54.445Z,4.90
2022-09-22T10:26:21.764Z,2.72
2022-09-22T10:27:26.138Z,2.60
2022-09-22T10:28:28.309Z,2.78
2022-09-22T10:29:30.502Z,2.65
2022-09-22T10:30:37.565Z,4.18
2022-09-22T10:31:41.843Z,3.80
2022-09-22T10:33:05.625Z,3.30
2022-09-22T10:34:40.968Z,3.22
2022-09-22T10:36:09.262Z,2.50
2022-09-22T10:37:17.054Z,3.00
2022-09-22T10:38:22.221Z,2.63
2022-09-22T10:39:37.210Z,3.08
2022-09-22T10:40:44.181Z,2.30
2022-09-22T10:41:48.919Z,3.17
2022-09-22T10:42:53.031Z,3.38
2022-09-22T10:44:15.269Z,2.20
2022-09-22T10:45:47.115Z,2.00
2022-09-22T10:46:49.973Z,1.92
2022-09-22T10:48:11.824Z,2.15
2022-09-22T10:50:05.361Z,1.70
2022-09-22T10:51:21.800Z,1.70
2022-09-22T10:52:41.502Z,1.75
2022-09-22T10:54:08.570Z,2.30
2022-09-22T10:55:22.935Z,2.25
2022-09-22T10:56:41.468Z,1.92
2022-09-22T10:58:02.063Z,2.40
2022-09-22T10:59:22.287Z,4.93
2022-09-22T11:00:26.924Z,2.83
2022-09-22T11:01:47.126Z,1.85
2022-09-22T11:03:13.547Z,1.90
2022-09-22T11:04:21.733Z,3.17
2022-09-22T11:05:49.792Z,2.38
2022-09-22T11:07:26.231Z,2.30
2022-09-22T11:08:55.677Z,2.10
2022-09-22T11:10:21.186Z,2.15
2022-09-22T11:11:51.731Z,2.03
2022-09-22T11:13:01.088Z,3.10
2022-09-22T11:14:40.791Z,1.70
2022-09-22T11:16:24.546Z,2.42
2022-09-22T11:17:46.917Z,1.77
2022-09-22T11:19:09.887Z,2.72
2022-09-22T11:20:37.021Z,2.20
2022-09-22T11:21:39.128Z,2.95
2022-09-22T11:22:54.354Z,3.63
2022-09-22T11:24:13.103Z,5.20
2022-09-22T11:25:33.986Z,5.95
2022-09-22T11:26:48.230Z,5.22
2022-09-22T11:27:56.451Z,3.28
2022-09-22T11:29:06.800Z,4.95
2022-09-22T11:30:18.361Z,2.78
2022-09-22T11:31:47.295Z,4.70
2022-09-22T11:33:00.061Z,2.85
2022-09-22T11:34:23.259Z,3.33
2022-09-22T11:35:34.520Z,5.15
2022-09-22T11:36:58.915Z,3.70
2022-09-22T11:38:28.598Z,3.50
2022-09-22T11:39:59.796Z,3.30
2022-09-22T11:41:28.938Z,3.42
2022-09-22T11:43:03.780Z,2.85
2022-09-22T11:44:30.188Z,3.10
2022-09-22T11:45:55.723Z,5.05
2022-09-22T11:47:16.152Z,3.55
2022-09-22T11:48:55.849Z,2.65
2022-09-22T11:50:23.206Z,3.72
2022-09-22T11:51:44.014Z,3.55
2022-09-22T11:53:24.242Z,3.05
2022-09-22T11:54:54.337Z,2.08
2022-09-22T11:56:23.704Z,2.40
2022-09-22T11:57:31.778Z,2.08
2022-09-22T11:58:41.223Z,1.88
2022-09-22T12:00:05.730Z,2.15
2022-09-22T12:01:19.247Z,4.03
2022-09-22T12:02:29.515Z,2.53
2022-09-22T12:03:47.317Z,1.65
2022-09-22T12:05:02.122Z,1.85
2022-09-22T12:06:12.753Z,2.13
2022-09-22T12:07:24.570Z,1.77
2022-09-22T12:08:32.561Z,1.80
2022-09-22T12:09:46.054Z,1.73
2022-09-22T12:10:50.219Z,1.95
2022-09-22T12:11:56.213Z,1.50
2022-09-22T12:12:58.548Z,3.22
2022-09-22T12:14:01.038Z,2.00
2022-09-22T12:15:19.351Z,2.90
2022-09-22T12:16:42.007Z,1.45
2022-09-22T12:17:54.134Z,3.42
2022-09-22T12:19:03.646Z,2.17
2022-09-22T12:20:16.404Z,1.70
2022-09-22T12:21:46.040Z,1.77
2022-09-22T12:22:48.119Z,1.88
2022-09-22T12:23:52.268Z,1.48
2022-09-22T12:24:54.432Z,2.17
2022-09-22T12:26:01.487Z,1.83
2022-09-22T12:27:12.051Z,2.25
2022-09-22T12:28:23.245Z,1.88
2022-09-22T12:29:30.684Z,1.38
2022-09-22T12:30:33.146Z,1.83
2022-09-22T12:31:38.071Z,1.38
2022-09-22T12:32:42.744Z,1.52
2022-09-22T12:33:49.984Z,1.00
2022-09-22T12:34:56.248Z,1.08
2022-09-22T12:35:59.365Z,1.05
2022-09-22T12:37:29.778Z,1.10
2022-09-22T12:38:32.352Z,0.95
2022-09-22T12:39:41.993Z,1.77
2022-09-22T12:40:50.340Z,1.08
2022-09-22T12:42:06.037Z,0.80
2022-09-22T12:43:19.545Z,1.00
2022-09-22T12:44:25.190Z,0.90
2022-09-22T12:45:37.534Z,1.00
2022-09-22T12:46:43.252Z,1.63
2022-09-22T12:47:50.741Z,1.02
2022-09-22T12:48:53.545Z,1.00
2022-09-22T12:50:01.765Z,1.02
2022-09-22T12:51:17.398Z,0.82
2022-09-22T12:52:39.937Z,1.00
2022-09-22T12:53:43.861Z,1.00
2022-09-22T12:54:46.998Z,0.75
2022-09-22T12:55:51.218Z,1.90
2022-09-22T12:56:56.125Z,0.98
2022-09-22T12:58:00.135Z,0.90
2022-09-22T12:59:02.256Z,0.93
2022-09-22T13:00:17.730Z,1.30
2022-09-22T13:01:33.091Z,1.40
2022-09-22T13:02:43.162Z,0.95
2022-09-22T13:03:50.778Z,2.53
2022-09-22T13:04:56.017Z,0.90
2022-09-22T13:06:04.356Z,0.90
2022-09-22T13:07:45.457Z,1.20
2022-09-22T13:08:53.756Z,1.00
2022-09-22T13:10:23.974Z,1.52
2022-09-22T13:12:03.847Z,2.15
2022-09-22T13:13:05.985Z,1.13
2022-09-22T13:14:57.049Z,0.90
2022-09-22T13:16:03.424Z,1.30
2022-09-22T13:17:43.575Z,1.02
2022-09-22T13:19:01.594Z,1.40
2022-09-22T13:20:18.597Z,1.13
2022-09-22T13:21:26.760Z,2.13
2022-09-22T13:22:28.944Z,2.03
2022-09-22T13:23:31.126Z,3.63
2022-09-22T13:24:33.285Z,3.28
2022-09-22T13:25:35.581Z,2.85
2022-09-22T13:26:41.265Z,2.97
2022-09-22T13:27:43.476Z,2.47
2022-09-22T13:29:13.133Z,2.00
2022-09-22T13:30:15.343Z,1.70
2022-09-22T13:31:18.007Z,1.70
2022-09-22T13:32:26.964Z,1.40
2022-09-22T13:33:33.927Z,2.55
2022-09-22T13:34:37.003Z,5.18
2022-09-22T13:35:41.131Z,2.20
2022-09-22T13:36:44.712Z,1.65
2022-09-22T13:37:47.212Z,3.03
2022-09-22T13:38:56.310Z,2.85
2022-09-22T13:39:58.465Z,2.72
2022-09-22T13:41:00.906Z,1.50
2022-09-22T13:42:08.432Z,1.90
2022-09-22T13:43:12.403Z,1.60
2022-09-22T13:44:17.221Z,1.77
2022-09-22T13:45:26.173Z,2.47
2022-09-22T13:46:40.304Z,1.35
2022-09-22T13:47:43.618Z,1.58
2022-09-22T13:48:45.917Z,1.77
2022-09-22T13:49:57.710Z,1.50
2022-09-22T13:51:04.563Z,1.90
2022-09-22T13:52:22.174Z,2.15
2022-09-22T13:53:24.730Z,1.48
2022-09-22T13:54:31.593Z,1.30
2022-09-22T13:55:36.126Z,1.55
2022-09-22T13:56:38.671Z,2.00
2022-09-22T13:57:42.368Z,1.60
2022-09-22T13:58:46.761Z,1.58
2022-09-22T13:59:51.660Z,1.70
2022-09-22T14:01:12.964Z,1.40
2022-09-22T14:02:22.294Z,1.40
2022-09-22T14:03:25.173Z,1.63
2022-09-22T14:04:27.695Z,1.30
2022-09-22T14:05:33.681Z,1.60
2022-09-22T14:06:36.964Z,1.08
2022-09-22T14:07:55.198Z,1.30
2022-09-22T14:09:03.804Z,1.20
2022-09-22T14:10:09.280Z,1.30
2022-09-22T14:11:28.185Z,1.20
2022-09-22T14:12:30.583Z,1.25
2022-09-22T14:13:59.365Z,1.05
2022-09-22T14:15:33.642Z,1.10
2022-09-22T14:16:46.766Z,2.55
2022-09-22T14:17:49.172Z,1.30
2022-09-22T14:18:58.894Z,1.65
2022-09-22T14:20:04.595Z,1.20
2022-09-22T14:21:10.751Z,1.20
2022-09-22T14:22:22.146Z,1.20
2022-09-22T14:23:30.828Z,1.35
2022-09-22T14:24:39.450Z,1.23
2022-09-22T14:25:43.089Z,1.05
2022-09-22T14:26:54.928Z,1.10
2022-09-22T14:27:59.884Z,1.13
2022-09-22T14:29:23.235Z,1.40
2022-09-22T14:30:31.230Z,1.92
2022-09-22T14:31:35.948Z,1.40
2022-09-22T14:32:47.131Z,6.10
2022-09-22T14:33:49.549Z,2.63
2022-09-22T14:34:58.675Z,1.90
2022-09-22T14:36:03.476Z,2.05
2022-09-22T14:37:31.250Z,1.45
2022-09-22T14:38:41.961Z,1.08
2022-09-22T14:39:47.417Z,1.58
2022-09-22T14:41:03.225Z,1.42
2022-09-22T14:42:20.614Z,3.00
2022-09-22T14:43:24.123Z,1.33
2022-09-22T14:44:35.316Z,1.20
2022-09-22T14:45:59.628Z,1.27
2022-09-22T14:47:28.226Z,1.20
2022-09-22T14:48:39.141Z,1.30
2022-09-22T14:49:44.638Z,1.48
2022-09-22T14:50:46.989Z,1.40
2022-09-22T14:51:49.558Z,1.52
2022-09-22T14:53:17.975Z,1.50
2022-09-22T14:54:20.764Z,1.80
2022-09-22T14:55:29.568Z,1.88
2022-09-22T14:56:34.328Z,2.42
2022-09-22T14:57:36.600Z,2.83
2022-09-22T14:58:41.679Z,2.20
2022-09-22T15:00:10.663Z,2.10
2022-09-22T15:01:39.676Z,1.60
2022-09-22T15:02:49.672Z,1.63
2022-09-22T15:04:06.010Z,1.40
2022-09-22T15:05:11.858Z,2.67
2022-09-22T15:06:15.237Z,1.52
2022-09-22T15:07:29.295Z,1.35
2022-09-22T15:08:32.031Z,2.05
2022-09-22T15:09:40.281Z,1.30
2022-09-22T15:10:52.437Z,1.38
2022-09-22T15:12:02.910Z,1.30
2022-09-22T15:13:46.733Z,1.30
2022-09-22T15:14:59.202Z,1.00
2022-09-22T15:16:01.832Z,2.65
2022-09-22T15:17:43.995Z,1.20